createdAt,value
2018-01-22T00:00:20.939Z,95.90
2018-01-22T00:02:48.447Z,95.90
2018-01-22T00:05:16.046Z,95.90
2018-01-22T00:07:43.569Z,95.80
2018-01-22T00:10:11.115Z,95.90
2018-01-22T00:12:38.637Z,95.70
2018-01-22T00:15:06.210Z,95.80
2018-01-22T00:17:33.807Z,95.80
2018-01-22T00:20:01.359Z,95.80
2018-01-22T00:22:28.883Z,95.80
2018-01-22T00:24:56.455Z,95.90
2018-01-22T00:27:24.725Z,95.80
2018-01-22T00:29:52.307Z,95.80
2018-01-22T00:32:20.235Z,95.80
2018-01-22T00:34:48.668Z,95.70
2018-01-22T00:37:16.215Z,95.70
2018-01-22T00:39:43.746Z,95.80
2018-01-22T00:42:11.263Z,95.90
2018-01-22T00:44:38.807Z,95.80
2018-01-22T00:47:06.337Z,95.70
2018-01-22T00:49:34.653Z,95.50
2018-01-22T00:52:02.199Z,95.50
2018-01-22T00:54:29.737Z,95.50
2018-01-22T00:56:58.023Z,95.40
2018-01-22T00:59:25.598Z,95.40
2018-01-22T01:01:53.150Z,95.40
2018-01-22T01:04:20.702Z,95.60
2018-01-22T01:06:48.265Z,95.60
2018-01-22T01:09:15.811Z,95.50
2018-01-22T01:11:44.103Z,95.50
2018-01-22T01:14:15.419Z,95.50
2018-01-22T01:16:42.979Z,95.70
2018-01-22T01:19:11.282Z,96.30
2018-01-22T01:21:43.668Z,96.00
2018-01-22T01:24:11.212Z,96.00
2018-01-22T01:26:38.764Z,96.00
2018-01-22T01:29:07.092Z,96.30
2018-01-22T01:31:34.611Z,96.30
2018-01-22T01:34:02.163Z,96.10
2018-01-22T01:36:29.698Z,96.20
2018-01-22T01:38:57.236Z,96.20
2018-01-22T01:41:24.843Z,96.40
2018-01-22T01:43:52.391Z,96.40
2018-01-22T01:46:20.675Z,96.30
2018-01-22T01:49:00.899Z,96.40
2018-01-22T01:51:28.408Z,96.30
2018-01-22T01:53:55.954Z,96.40
2018-01-22T01:56:23.459Z,96.50
2018-01-22T01:58:51.016Z,96.70
2018-01-22T02:01:18.534Z,97.60
2018-01-22T02:03:46.137Z,96.70
2018-01-22T02:06:13.650Z,97.00
2018-01-22T02:08:41.216Z,96.90
2018-01-22T02:11:08.719Z,97.10
2018-01-22T02:13:36.327Z,97.30
2018-01-22T02:16:03.820Z,97.20
2018-01-22T02:18:31.450Z,97.40
2018-01-22T02:20:58.969Z,97.30
2018-01-22T02:23:26.491Z,97.40
2018-01-22T02:25:53.991Z,97.80
2018-01-22T02:28:22.383Z,97.50
2018-01-22T02:30:50.799Z,97.50
2018-01-22T02:33:18.322Z,97.50
2018-01-22T02:35:46.629Z,97.80
2018-01-22T02:38:14.187Z,97.80
2018-01-22T02:40:41.771Z,97.70
2018-01-22T02:43:09.263Z,97.70
2018-01-22T02:45:36.784Z,97.70
2018-01-22T02:48:04.404Z,98.10
2018-01-22T02:50:31.947Z,97.80
2018-01-22T02:52:59.471Z,97.90
2018-01-22T02:55:27.056Z,97.90
2018-01-22T02:57:54.661Z,97.80
2018-01-22T03:00:22.187Z,97.90
2018-01-22T03:02:50.455Z,97.80
2018-01-22T03:05:17.996Z,97.80
2018-01-22T03:07:45.500Z,97.80
2018-01-22T03:10:13.120Z,97.80
2018-01-22T03:12:40.720Z,97.80
2018-01-22T03:15:08.265Z,97.80
2018-01-22T03:17:36.669Z,98.10
2018-01-22T03:20:04.181Z,98.00
2018-01-22T03:22:31.700Z,98.00
2018-01-22T03:24:59.268Z,98.00
2018-01-22T03:27:26.803Z,98.10
2018-01-22T03:29:54.409Z,98.10
2018-01-22T03:32:21.942Z,98.00
2018-01-22T03:34:49.570Z,97.90
2018-01-22T03:37:17.085Z,97.90
2018-01-22T03:39:44.623Z,98.00
2018-01-22T03:42:12.127Z,98.00
2018-01-22T03:44:40.426Z,98.20
2018-01-22T03:47:08.023Z,98.20
2018-01-22T03:49:35.534Z,98.10
2018-01-22T03:52:03.796Z,98.00
2018-01-22T03:54:31.499Z,98.00
2018-01-22T03:56:59.027Z,98.20
2018-01-22T03:59:27.326Z,98.10
2018-01-22T04:01:54.838Z,98.00
2018-01-22T04:04:22.390Z,98.10
2018-01-22T04:06:50.014Z,98.10
2018-01-22T04:09:17.535Z,98.10
2018-01-22T04:11:45.817Z,98.30
2018-01-22T04:14:14.162Z,98.40
2018-01-22T04:16:41.674Z,98.30
2018-01-22T04:19:09.204Z,98.20
2018-01-22T04:21:36.717Z,98.40
2018-01-22T04:24:04.365Z,98.40
2018-01-22T04:26:31.916Z,98.50
2018-01-22T04:28:59.442Z,98.50
2018-01-22T04:31:27.714Z,98.60
2018-01-22T04:33:55.230Z,98.60
2018-01-22T04:36:22.773Z,98.90
2018-01-22T04:38:50.447Z,98.60
2018-01-22T04:41:17.966Z,98.70
2018-01-22T04:43:46.266Z,98.70
2018-01-22T04:46:13.777Z,98.70
2018-01-22T04:48:41.345Z,98.70
2018-01-22T04:51:08.851Z,98.80
2018-01-22T04:53:36.386Z,98.70
2018-01-22T04:56:04.926Z,98.80
2018-01-22T04:58:32.446Z,98.70
2018-01-22T05:00:59.967Z,98.80
2018-01-22T05:03:27.485Z,98.70
2018-01-22T05:05:55.063Z,98.70
2018-01-22T05:08:22.603Z,98.80
2018-01-22T05:10:50.150Z,98.70
2018-01-22T05:13:17.692Z,98.70
2018-01-22T05:15:45.219Z,98.90
2018-01-22T05:18:12.759Z,98.80
2018-01-22T05:20:40.254Z,98.80
2018-01-22T05:23:08.639Z,98.70
2018-01-22T05:25:36.192Z,98.70
2018-01-22T05:28:04.495Z,98.80
2018-01-22T05:30:32.096Z,98.80
2018-01-22T05:33:00.515Z,98.80
2018-01-22T05:35:39.668Z,98.80
2018-01-22T05:38:07.191Z,98.70
2018-01-22T05:40:35.479Z,98.70
2018-01-22T05:43:03.025Z,98.70
2018-01-22T05:45:31.332Z,98.70
2018-01-22T05:47:58.832Z,98.70
2018-01-22T05:50:26.460Z,98.80
2018-01-22T05:52:53.963Z,98.80
2018-01-22T05:55:21.495Z,98.90
2018-01-22T05:57:48.999Z,98.90
2018-01-22T06:00:17.322Z,99.00
2018-01-22T06:02:44.850Z,98.90
2018-01-22T06:05:12.516Z,98.90
2018-01-22T06:07:40.031Z,99.00
2018-01-22T06:10:07.589Z,99.20
2018-01-22T06:12:35.251Z,99.90
2018-01-22T06:15:02.780Z,99.60
2018-01-22T06:17:30.304Z,99.70
2018-01-22T06:19:57.827Z,99.70
2018-01-22T06:22:25.339Z,99.70
2018-01-22T06:24:52.899Z,99.70
2018-01-22T06:27:20.498Z,99.80
2018-01-22T06:29:48.039Z,99.90
2018-01-22T06:32:15.585Z,99.80
2018-01-22T06:34:43.123Z,99.80
2018-01-22T06:37:10.667Z,99.80
2018-01-22T06:39:38.180Z,99.90
2018-01-22T06:42:06.027Z,99.80
2018-01-22T06:44:33.563Z,99.80
2018-01-22T06:47:01.131Z,99.80
2018-01-22T06:49:28.684Z,99.90
2018-01-22T06:51:56.190Z,99.90
2018-01-22T06:54:23.741Z,99.90
2018-01-22T06:56:51.269Z,99.90
2018-01-22T06:59:18.816Z,99.90
2018-01-22T07:01:47.106Z,99.90
2018-01-22T07:04:14.758Z,99.90
2018-01-22T07:06:42.288Z,99.90
2018-01-22T07:09:09.812Z,99.90
2018-01-22T07:11:37.327Z,99.90
2018-01-22T07:14:04.882Z,99.90
2018-01-22T07:16:33.222Z,99.90
2018-01-22T07:19:00.748Z,99.90
2018-01-22T07:21:28.249Z,99.90
2018-01-22T07:23:55.811Z,99.90
2018-01-22T07:26:23.406Z,99.90
2018-01-22T07:28:51.710Z,99.90
2018-01-22T07:31:19.220Z,99.90
2018-01-22T07:33:47.503Z,99.90
2018-01-22T07:36:15.793Z,99.90
2018-01-22T07:38:43.335Z,99.90
2018-01-22T07:41:11.653Z,99.90
2018-01-22T07:43:39.192Z,99.90
2018-01-22T07:46:06.726Z,99.90
2018-01-22T07:48:35.042Z,99.90
2018-01-22T07:51:02.617Z,99.90
2018-01-22T07:53:30.159Z,99.90
2018-01-22T07:55:57.670Z,99.90
2018-01-22T07:58:25.484Z,99.90
2018-01-22T08:00:53.041Z,99.90
2018-01-22T08:03:20.563Z,99.90
2018-01-22T08:05:48.875Z,99.90
2018-01-22T08:08:16.400Z,99.90
2018-01-22T08:10:44.670Z,99.80
2018-01-22T08:13:12.974Z,99.90
2018-01-22T08:15:40.493Z,99.90
2018-01-22T08:18:08.019Z,99.90
2018-01-22T08:20:35.563Z,99.80
2018-01-22T08:23:03.111Z,99.80
2018-01-22T08:25:30.610Z,99.80
2018-01-22T08:27:58.159Z,99.90
2018-01-22T08:30:29.298Z,99.90
2018-01-22T08:32:56.823Z,99.90
2018-01-22T08:35:24.327Z,99.90
2018-01-22T08:37:51.887Z,99.90
2018-01-22T08:40:19.390Z,99.90
2018-01-22T08:42:47.794Z,99.90
2018-01-22T08:45:15.331Z,99.90
2018-01-22T08:47:43.616Z,99.80
2018-01-22T08:50:11.891Z,99.80
2018-01-22T08:52:39.419Z,99.80
2018-01-22T08:55:06.932Z,99.70
2018-01-22T08:57:34.511Z,99.70
2018-01-22T09:00:02.044Z,99.60
2018-01-22T09:02:29.629Z,99.70
2018-01-22T09:04:57.144Z,99.70
2018-01-22T09:07:25.583Z,99.70
2018-01-22T09:09:53.128Z,99.70
2018-01-22T09:12:20.673Z,99.80
2018-01-22T09:14:58.291Z,99.80
2018-01-22T09:17:25.812Z,99.80
2018-01-22T09:19:53.372Z,99.90
2018-01-22T09:22:20.868Z,99.90
2018-01-22T09:24:48.503Z,99.40
2018-01-22T09:27:16.107Z,99.20
2018-01-22T09:29:43.638Z,99.10
2018-01-22T09:32:11.182Z,99.10
2018-01-22T09:34:38.734Z,99.00
2018-01-22T09:37:06.293Z,99.10
2018-01-22T09:39:33.868Z,99.10
2018-01-22T09:42:01.415Z,99.00
2018-01-22T09:44:29.075Z,98.90
2018-01-22T09:46:56.630Z,99.00
2018-01-22T09:49:24.134Z,99.00
2018-01-22T09:51:51.683Z,99.00
2018-01-22T09:54:19.207Z,99.10
2018-01-22T09:56:46.782Z,99.20
2018-01-22T09:59:14.402Z,99.20
2018-01-22T10:01:42.710Z,99.00
2018-01-22T10:04:10.252Z,98.90
2018-01-22T10:06:37.824Z,98.60
2018-01-22T10:09:05.315Z,98.40
2018-01-22T10:11:32.866Z,98.20
2018-01-22T10:14:01.198Z,98.10
2018-01-22T10:16:28.781Z,98.10
2018-01-22T10:18:56.320Z,98.10
2018-01-22T10:21:23.857Z,98.10
2018-01-22T10:23:51.378Z,98.00
2018-01-22T10:26:18.922Z,98.10
2018-01-22T10:28:46.460Z,98.10
2018-01-22T10:31:14.128Z,98.00
2018-01-22T10:33:41.631Z,98.20
2018-01-22T10:36:09.226Z,98.20
2018-01-22T10:38:37.508Z,98.30
2018-01-22T10:41:05.830Z,98.20
2018-01-22T10:43:33.344Z,98.20
2018-01-22T10:46:01.651Z,98.10
2018-01-22T10:48:29.210Z,98.00
2018-01-22T10:50:56.752Z,98.00
2018-01-22T10:53:24.300Z,98.00
2018-01-22T10:55:51.832Z,98.00
2018-01-22T10:58:20.903Z,98.00
2018-01-22T11:00:48.515Z,98.00
2018-01-22T11:03:16.063Z,97.90
2018-01-22T11:05:44.346Z,98.20
2018-01-22T11:08:12.694Z,97.30
2018-01-22T11:10:40.308Z,97.20
2018-01-22T11:13:07.858Z,96.20
2018-01-22T11:15:41.018Z,95.80
2018-01-22T11:18:09.421Z,95.30
2018-01-22T11:20:36.967Z,95.30
2018-01-22T11:23:05.303Z,95.30
2018-01-22T11:25:32.828Z,95.30
2018-01-22T11:28:00.356Z,95.70
2018-01-22T11:30:28.630Z,95.60
2018-01-22T11:32:56.173Z,95.60
2018-01-22T11:35:23.779Z,95.70
2018-01-22T11:37:51.320Z,95.40
2018-01-22T11:40:19.674Z,95.50
2018-01-22T11:42:47.231Z,95.40
2018-01-22T11:45:14.736Z,95.50
2018-01-22T11:47:42.305Z,95.50
2018-01-22T11:50:09.871Z,95.30
2018-01-22T11:52:37.394Z,95.30
2018-01-22T11:55:05.684Z,95.00
2018-01-22T11:57:33.220Z,95.00
2018-01-22T12:00:01.528Z,96.00
2018-01-22T12:02:29.063Z,96.00
2018-01-22T12:04:59.184Z,93.90
2018-01-22T12:07:27.478Z,94.00
2018-01-22T12:09:54.996Z,94.00
2018-01-22T12:12:22.527Z,93.90
2018-01-22T12:14:50.065Z,93.90
2018-01-22T12:17:17.587Z,93.50
2018-01-22T12:19:45.898Z,93.70
2018-01-22T12:22:13.510Z,93.70
2018-01-22T12:24:41.022Z,93.70
2018-01-22T12:27:08.605Z,93.90
2018-01-22T12:29:36.851Z,93.90
2018-01-22T12:32:04.416Z,93.90
2018-01-22T12:34:31.982Z,94.20
2018-01-22T12:36:59.532Z,93.70
2018-01-22T12:39:30.946Z,93.90
2018-01-22T12:41:59.322Z,93.90
2018-01-22T12:44:27.603Z,94.00
2018-01-22T12:46:56.019Z,94.20
2018-01-22T12:49:23.532Z,94.20
2018-01-22T12:51:51.070Z,94.10
2018-01-22T12:54:18.597Z,94.60
2018-01-22T12:56:46.276Z,94.20
2018-01-22T12:59:13.803Z,94.20
2018-01-22T13:01:41.347Z,94.50
2018-01-22T13:04:09.626Z,94.40
2018-01-22T13:06:38.146Z,94.20
2018-01-22T13:09:05.672Z,94.20
2018-01-22T13:11:34.007Z,94.10
2018-01-22T13:14:01.571Z,94.10
2018-01-22T13:16:29.160Z,94.10
2018-01-22T13:18:57.502Z,94.00
2018-01-22T13:21:25.066Z,94.00
2018-01-22T13:23:52.588Z,94.00
2018-01-22T13:26:20.128Z,94.00
2018-01-22T13:28:47.659Z,94.00
2018-01-22T13:31:15.977Z,94.00
2018-01-22T13:33:43.487Z,94.00
2018-01-22T13:36:12.283Z,94.00
2018-01-22T13:38:40.586Z,93.70
2018-01-22T13:41:13.122Z,93.70
2018-01-22T13:43:40.663Z,93.80
2018-01-22T13:46:08.223Z,93.80
2018-01-22T13:48:35.761Z,93.70
2018-01-22T13:51:03.298Z,93.70
2018-01-22T13:53:30.799Z,93.50
2018-01-22T13:55:58.356Z,92.90
2018-01-22T13:58:25.859Z,92.90
2018-01-22T14:00:54.169Z,92.70
2018-01-22T14:03:21.711Z,92.70
2018-01-22T14:05:49.262Z,92.90
2018-01-22T14:08:16.790Z,92.70
2018-01-22T14:10:44.302Z,92.80
2018-01-22T14:13:11.857Z,92.90
2018-01-22T14:15:39.398Z,93.00
2018-01-22T14:18:06.916Z,92.90
2018-01-22T14:20:34.522Z,93.00
2018-01-22T14:23:02.033Z,93.00
2018-01-22T14:25:29.571Z,93.10
2018-01-22T14:27:57.098Z,93.20
2018-01-22T14:30:25.397Z,92.80
2018-01-22T14:32:52.946Z,92.70
2018-01-22T14:35:20.496Z,93.20
2018-01-22T14:37:48.007Z,92.80
2018-01-22T14:40:15.565Z,93.00
2018-01-22T14:42:43.069Z,93.20
2018-01-22T14:45:10.728Z,93.20
2018-01-22T14:47:38.272Z,93.30
2018-01-22T14:50:06.564Z,93.30
2018-01-22T14:52:34.083Z,93.30
2018-01-22T14:55:01.640Z,93.40
2018-01-22T14:57:29.198Z,93.30
2018-01-22T14:59:56.746Z,93.30
2018-01-22T15:02:24.257Z,93.30
2018-01-22T15:04:51.855Z,93.10
2018-01-22T15:07:19.363Z,93.40
2018-01-22T15:09:47.673Z,93.40
2018-01-22T15:12:15.508Z,93.40
2018-01-22T15:14:43.898Z,93.40
2018-01-22T15:17:11.476Z,93.40
2018-01-22T15:19:39.037Z,93.50
2018-01-22T15:22:06.549Z,93.60
2018-01-22T15:24:34.132Z,93.20
2018-01-22T15:27:02.418Z,93.40
2018-01-22T15:29:30.844Z,93.30
2018-01-22T15:31:58.397Z,93.30
2018-01-22T15:34:25.977Z,93.40
2018-01-22T15:36:53.506Z,93.50
2018-01-22T15:39:21.151Z,93.30
2018-01-22T15:41:48.716Z,93.30
2018-01-22T15:44:16.276Z,93.30
2018-01-22T15:46:43.791Z,93.40
2018-01-22T15:49:12.107Z,93.70
2018-01-22T15:51:39.637Z,93.70
2018-01-22T15:54:07.966Z,93.80
2018-01-22T15:56:35.776Z,93.80
2018-01-22T15:59:04.143Z,93.80
2018-01-22T16:01:31.777Z,93.80
2018-01-22T16:03:59.333Z,93.70
2018-01-22T16:06:26.874Z,93.90
2018-01-22T16:08:54.456Z,94.00
2018-01-22T16:11:21.972Z,94.10
2018-01-22T16:13:49.519Z,94.10
2018-01-22T16:16:17.126Z,94.00
2018-01-22T16:18:44.695Z,94.00
2018-01-22T16:21:12.220Z,94.00
2018-01-22T16:23:39.772Z,94.10
2018-01-22T16:26:07.285Z,93.90
2018-01-22T16:28:34.829Z,94.10
2018-01-22T16:31:02.466Z,93.70
2018-01-22T16:33:30.013Z,93.50
2018-01-22T16:35:57.548Z,93.70
2018-01-22T16:38:25.891Z,93.60
2018-01-22T16:40:54.462Z,93.50
2018-01-22T16:43:22.045Z,93.70
2018-01-22T16:45:49.589Z,93.60
2018-01-22T16:48:17.136Z,93.70
2018-01-22T16:50:44.712Z,94.20
2018-01-22T16:53:12.244Z,93.90
2018-01-22T16:55:39.765Z,94.20
2018-01-22T16:58:09.031Z,93.80
2018-01-22T17:00:36.614Z,93.80
2018-01-22T17:03:04.958Z,93.90
2018-01-22T17:05:32.592Z,93.90
2018-01-22T17:08:00.133Z,93.80
2018-01-22T17:10:27.665Z,93.90
2018-01-22T17:12:55.289Z,93.80
2018-01-22T17:15:22.836Z,93.80
2018-01-22T17:17:50.356Z,93.70
2018-01-22T17:20:18.707Z,93.50
2018-01-22T17:22:46.427Z,93.50
2018-01-22T17:25:14.048Z,93.30
2018-01-22T17:27:41.590Z,93.30
2018-01-22T17:30:09.242Z,92.60
2018-01-22T17:32:36.801Z,92.20
2018-01-22T17:35:04.327Z,92.40
2018-01-22T17:37:31.988Z,92.40
2018-01-22T17:39:59.608Z,92.80
2018-01-22T17:42:27.170Z,93.00
2018-01-22T17:44:55.496Z,93.20
2018-01-22T17:47:23.028Z,93.20
2018-01-22T17:49:51.425Z,93.30
2018-01-22T17:52:18.993Z,93.20
2018-01-22T17:54:46.602Z,93.20
2018-01-22T17:57:14.928Z,93.30
2018-01-22T17:59:42.490Z,93.20
2018-01-22T18:02:10.316Z,93.20
2018-01-22T18:04:38.687Z,93.00
2018-01-22T18:07:06.233Z,93.00
2018-01-22T18:09:33.804Z,92.80
2018-01-22T18:12:02.648Z,93.10
2018-01-22T18:14:30.284Z,93.60
2018-01-22T18:16:58.019Z,93.20
2018-01-22T18:19:25.587Z,93.10
2018-01-22T18:21:53.912Z,93.10
2018-01-22T18:24:21.471Z,93.10
2018-01-22T18:26:48.964Z,93.00
2018-01-22T18:29:16.528Z,93.10
2018-01-22T18:31:44.050Z,93.10
2018-01-22T18:34:11.614Z,93.10
2018-01-22T18:36:39.158Z,93.10
2018-01-22T18:39:06.699Z,93.20
2018-01-22T18:41:35.005Z,93.10
2018-01-22T18:44:02.589Z,93.10
2018-01-22T18:46:30.185Z,93.10
2018-01-22T18:48:58.500Z,93.10
2018-01-22T18:51:26.150Z,93.10
2018-01-22T18:53:53.746Z,93.20
2018-01-22T18:56:21.324Z,93.30
2018-01-22T18:58:50.371Z,93.30
2018-01-22T19:01:17.921Z,93.30
2018-01-22T19:03:45.623Z,93.50
2018-01-22T19:06:13.149Z,93.60
2018-01-22T19:08:40.674Z,93.50
2018-01-22T19:11:08.261Z,93.50
2018-01-22T19:13:35.945Z,93.60
2018-01-22T19:16:03.533Z,93.60
2018-01-22T19:18:31.135Z,93.70
2018-01-22T19:20:58.721Z,93.60
2018-01-22T19:23:26.263Z,93.60
2018-01-22T19:25:54.029Z,93.70
2018-01-22T19:28:21.554Z,93.50
2018-01-22T19:30:49.148Z,93.60
2018-01-22T19:33:16.681Z,93.60
2018-01-22T19:35:44.243Z,93.60
2018-01-22T19:38:11.779Z,93.60
2018-01-22T19:40:39.373Z,93.70
2018-01-22T19:43:07.762Z,93.50
2018-01-22T19:45:35.314Z,93.90
2018-01-22T19:48:02.895Z,93.50
2018-01-22T19:50:30.755Z,93.50
2018-01-22T19:52:58.270Z,93.50
2018-01-22T19:55:26.619Z,93.40
2018-01-22T19:57:54.238Z,93.40
2018-01-22T20:00:21.812Z,93.50
2018-01-22T20:02:49.505Z,93.50
2018-01-22T20:05:17.949Z,93.30
2018-01-22T20:07:45.514Z,93.30
2018-01-22T20:10:13.136Z,93.30
2018-01-22T20:12:41.542Z,93.70
2018-01-22T20:15:09.792Z,93.30
2018-01-22T20:17:38.066Z,93.30
2018-01-22T20:22:50.496Z,93.40
2018-01-22T20:25:23.338Z,93.30
2018-01-22T20:27:51.363Z,93.60
2018-01-22T20:30:18.930Z,93.40
2018-01-22T20:32:46.570Z,93.30
2018-01-22T20:35:14.873Z,93.30
2018-01-22T20:37:42.426Z,93.30
2018-01-22T20:40:10.008Z,93.30
2018-01-22T20:42:37.552Z,93.30
2018-01-22T20:45:06.975Z,93.30
2018-01-22T20:47:34.717Z,93.20
2018-01-22T20:50:02.266Z,93.20
2018-01-22T20:52:29.914Z,93.10
2018-01-22T20:54:58.348Z,93.10
2018-01-22T20:57:25.977Z,93.10
2018-01-22T20:59:53.533Z,93.00
2018-01-22T21:02:21.118Z,93.10
2018-01-22T21:04:48.662Z,93.00
2018-01-22T21:07:16.177Z,92.90
2018-01-22T21:09:44.503Z,93.10
2018-01-22T21:12:12.043Z,93.10
2018-01-22T21:14:39.598Z,93.10
2018-01-22T21:17:07.754Z,93.20
2018-01-22T21:19:36.138Z,93.00
2018-01-22T21:22:04.502Z,93.00
2018-01-22T21:24:32.073Z,93.00
2018-01-22T21:27:00.367Z,93.20
2018-01-22T21:29:27.899Z,93.10
2018-01-22T21:31:56.220Z,93.00
2018-01-22T21:34:23.764Z,93.00
2018-01-22T21:36:51.272Z,92.90
2018-01-22T21:39:18.883Z,93.00
2018-01-22T21:41:46.390Z,93.00
2018-01-22T21:44:14.711Z,92.90
2018-01-22T21:46:42.226Z,92.90
2018-01-22T21:49:09.761Z,92.80
2018-01-22T21:51:37.278Z,92.70
2018-01-22T21:54:05.621Z,92.80
2018-01-22T21:56:33.147Z,92.80
2018-01-22T21:59:00.648Z,92.80
2018-01-22T22:01:28.246Z,92.80
2018-01-22T22:03:55.777Z,92.80
2018-01-22T22:06:24.313Z,92.80
2018-01-22T22:08:51.977Z,92.70
2018-01-22T22:11:19.524Z,92.90
2018-01-22T22:13:47.058Z,92.80
2018-01-22T22:16:15.361Z,92.70
2018-01-22T22:18:42.938Z,92.70
2018-01-22T22:21:10.440Z,92.70
2018-01-22T22:23:38.793Z,92.90
2018-01-22T22:26:06.304Z,92.90
2018-01-22T22:28:33.852Z,93.10
2018-01-22T22:31:01.732Z,93.20
2018-01-22T22:33:29.299Z,93.30
2018-01-22T22:35:56.814Z,93.40
2018-01-22T22:38:24.359Z,93.40
2018-01-22T22:40:51.860Z,93.50
2018-01-22T22:43:19.437Z,93.40
2018-01-22T22:45:46.971Z,93.50
2018-01-22T22:48:15.284Z,93.50
2018-01-22T22:50:42.796Z,93.50
2018-01-22T22:53:11.094Z,93.70
2018-01-22T22:55:38.596Z,93.70
2018-01-22T22:58:06.123Z,93.70
2018-01-22T23:00:33.654Z,93.90
2018-01-22T23:03:01.962Z,93.90
2018-01-22T23:05:29.462Z,93.90
2018-01-22T23:07:57.074Z,93.90
2018-01-22T23:10:24.583Z,93.90
2018-01-22T23:12:52.120Z,93.90
2018-01-22T23:15:19.754Z,94.00
2018-01-22T23:17:47.398Z,94.10
2018-01-22T23:20:14.994Z,94.20
2018-01-22T23:22:42.573Z,94.20
2018-01-22T23:25:10.147Z,94.30
2018-01-22T23:27:37.755Z,94.30
2018-01-22T23:30:05.334Z,94.30
2018-01-22T23:32:32.896Z,94.20
2018-01-22T23:35:00.539Z,94.20
2018-01-22T23:37:28.103Z,94.30
2018-01-22T23:39:55.647Z,94.40
2018-01-22T23:42:23.206Z,94.70
2018-01-22T23:44:50.796Z,94.50
2018-01-22T23:47:18.423Z,94.50
2018-01-22T23:49:46.201Z,94.50
2018-01-22T23:52:13.867Z,94.60
2018-01-22T23:54:41.374Z,94.60
2018-01-22T23:57:08.930Z,94.70
2018-01-22T23:59:36.511Z,94.70
